Latest Weather Observations for Hopetoun North

IDW60801

Issued at 12:13 pm WST Sunday 17 February 2019 (issued every 10 minutes, with the page automatically refreshed every 10 minutes)

About weather observations | Map of weather stations | Latest weather observations for WA | Other Formats
Station Details ID: 009961 Name: HOPETOUN NORTH Lat: -33.93 Lon: 120.13 Height: 26.0 m
Data from the previous 72 hours. | See also: Recent months at Hopetoun North
Date/Time
WST
Temp
°C
App
Temp
°C
Dew
Point
°C
Rel
Hum
%
Delta-T
°C
Wind Press
QNH
hPa
Press
MSL
hPa
Rain since
9am
mm
Dir  Spd
km/h
Gust
km/h
Spd
kts
Gust
kts
17/12:00pm 19.1 16.2 10.9 59 4.4 SSE 17 24 9 13 1020.0 1019.9 0.0
17/11:30am 19.4 16.7 10.4 56 4.9 SSE 15 22 8 12 1020.4 1020.3 0.0
17/11:00am 19.4 17.2 10.7 57 4.7 SSE 13 22 7 12 1020.7 1020.6 0.0
17/10:30am 18.5 15.9 10.6 60 4.3 SSE 15 22 8 12 1021.0 1020.9 0.0
17/10:00am 19.4 16.6 10.1 55 5.0 SSE 15 22 8 12 1021.0 1020.9 0.0
17/09:30am 18.6 16.4 10.9 61 4.2 SE 13 20 7 11 1021.0 1020.9 0.0
17/09:00am 17.9 15.1 10.0 60 4.2 SSE 15 22 8 12 1021.1 1021.0 0.0
17/08:30am 17.6 14.6 10.7 64 3.7 SSE 17 24 9 13 1020.8 1020.7 0.0
17/08:00am 17.6 15.4 10.9 65 3.6 SSE 13 20 7 11 1020.7 1020.6 0.0
17/07:30am 17.4 14.7 10.3 63 3.8 SE 15 20 8 11 1020.4 1020.3 0.0
17/07:00am 17.3 15.1 10.7 65 3.5 SE 13 19 7 10 1020.3 1020.2 0.0
17/06:30am 17.0 14.6 9.9 63 3.7 SE 13 17 7 9 1020.2 1020.1 0.0
17/06:00am 17.0 14.0 10.8 67 3.3 SSE 17 26 9 14 1020.1 1020.0 0.0
17/05:30am 17.0 13.4 9.7 62 3.8 SE 19 28 10 15 1020.1 1020.0 0.0
17/05:00am 16.5 13.9 9.4 63 3.7 SSE 13 20 7 11 1020.0 1019.9 0.0
17/04:30am 16.6 13.0 9.8 64 3.6 S 19 30 10 16 1019.9 1019.8 0.0
17/04:00am 16.8 13.5 9.5 62 3.8 S 17 24 9 13 1019.8 1019.7 0.0
17/03:30am 17.1 13.6 10.2 64 3.7 S 19 26 10 14 1019.6 1019.5 0.0
17/03:00am 17.2 13.9 10.8 66 3.4 S 19 26 10 14 1019.7 1019.6 0.0
17/02:30am 17.3 14.5 10.0 62 3.9 S 15 24 8 13 1020.0 1019.9 0.0
17/02:00am 17.3 13.7 10.4 64 3.7 S 20 32 11 17 1019.9 1019.8 0.0
17/01:30am 17.4 14.6 11.2 67 3.4 SSE 17 22 9 12 1020.0 1019.9 0.0
17/01:00am 17.5 14.3 9.9 61 4.0 S 17 24 9 13 1020.3 1020.2 0.0
17/12:30am 17.5 14.9 10.6 64 3.7 S 15 22 8 12 1020.5 1020.4 0.0
17/12:00am 17.6 15.6 11.4 67 3.4 S 13 20 7 11 1020.8 1020.7 0.0
 
Date/Time
WST
Temp
°C
App
Temp
°C
Dew
Point
°C
Rel
Hum
%
Delta-T
°C
Wind Press
QNH
hPa
Press
MSL
hPa
Rain since
9am
mm
Dir  Spd
km/h
Gust
km/h
Spd
kts
Gust
kts
16/11:30pm 17.6 14.3 10.9 65 3.6 S 19 28 10 15 1021.1 1021.0 0.0
16/11:00pm 17.7 14.6 11.5 67 3.4 S 19 28 10 15 1020.9 1020.8 0.0
16/10:30pm 17.8 14.8 12.0 69 3.2 S 19 28 10 15 1021.0 1020.9 0.0
16/10:00pm 18.2 15.2 12.6 70 3.1 S 20 28 11 15 1021.0 1020.9 0.0
16/09:30pm 18.3 15.5 13.2 72 2.9 S 20 30 11 16 1021.1 1021.0 0.0
16/09:00pm 18.2 15.7 14.1 77 2.3 S 20 30 11 16 1021.0 1020.9 0.0
16/08:30pm 18.5 16.4 14.8 79 2.2 S 19 32 10 17 1020.7 1020.6 0.0
16/08:00pm 18.3 16.2 15.2 82 1.8 S 20 32 11 17 1020.4 1020.3 0.0
16/07:30pm 18.8 16.9 15.3 80 2.1 S 19 26 10 14 1020.2 1020.1 0.0
16/07:00pm 19.0 17.1 15.3 79 2.2 S 19 28 10 15 1019.9 1019.8 0.0
16/06:30pm 19.3 17.3 15.6 79 2.2 SSE 20 28 11 15 1019.6 1019.5 0.0
16/06:00pm 19.3 17.1 16.0 81 2.0 S 22 32 12 17 1019.3 1019.2 0.0
16/05:30pm 19.8 17.6 15.9 78 2.3 S 22 30 12 16 1019.2 1019.1 0.0
16/05:00pm 20.3 17.8 16.1 77 2.5 S 24 33 13 18 1019.0 1018.9 0.0
16/04:30pm 21.7 19.3 16.4 72 3.2 S 24 33 13 18 1019.0 1018.9 0.0
16/04:00pm 20.8 18.9 16.6 77 2.5 S 22 32 12 17 1019.1 1019.0 0.0
16/03:30pm 21.3 19.0 15.8 71 3.3 S 22 30 12 16 1019.0 1018.9 0.0
16/03:00pm 22.5 20.1 16.3 68 3.8 SSW 24 32 13 17 1019.0 1018.9 0.0
16/02:30pm 22.0 20.2 16.1 69 3.6 SSW 20 32 11 17 1019.2 1019.1 0.0
16/02:00pm 23.7 21.6 16.2 63 4.6 S 22 32 12 17 1019.3 1019.2 0.0
16/01:30pm 22.5 19.6 15.1 63 4.4 S 24 30 13 16 1019.5 1019.4 0.0
16/01:00pm 22.5 20.2 15.6 65 4.1 S 22 28 12 15 1019.5 1019.4 0.0
16/12:30pm 22.1 19.9 15.9 68 3.7 S 22 32 12 17 1019.4 1019.3 0.0
16/12:00pm 21.8 19.8 15.4 67 3.8 S 20 28 11 15 1019.5 1019.4 0.0
16/11:30am 22.4 19.7 15.5 65 4.1 S 24 33 13 18 1019.7 1019.6 0.0
16/11:00am 22.3 19.6 15.6 66 4.0 S 24 32 13 17 1019.9 1019.8 0.0
16/10:30am 20.9 18.3 15.0 69 3.5 SSW 22 32 12 17 1020.0 1019.9 0.0
16/10:00am 20.6 18.0 14.9 70 3.3 S 22 30 12 16 1020.0 1019.9 0.0
16/09:30am 21.6 19.1 15.2 67 3.8 SSW 22 30 12 16 1019.8 1019.7 0.0
16/09:00am 21.1 19.0 15.2 69 3.5 SSW 20 28 11 15 1019.6 1019.5 0.0
16/08:30am 21.0 18.9 15.3 70 3.4 SSW 20 28 11 15 1019.7 1019.6 0.0
16/08:00am 20.8 19.3 15.4 71 3.2 S 17 24 9 13 1019.4 1019.3 0.0
16/07:30am 20.1 17.7 15.5 75 2.7 SSW 22 32 12 17 1019.4 1019.3 0.0
16/07:00am 19.9 17.8 15.1 74 2.8 SSW 20 28 11 15 1019.2 1019.1 0.0
16/06:30am 19.2 17.2 15.5 79 2.2 SSW 20 30 11 16 1018.9 1018.8 0.0
16/06:00am 19.2 17.0 15.9 81 2.0 SSW 22 30 12 16 1018.7 1018.6 0.0
16/05:30am 19.1 17.3 16.1 83 1.8 SSW 20 30 11 16 1018.1 1018.0 0.0
16/05:00am 19.1 17.4 15.8 81 2.0 S 19 26 10 14 1017.8 1017.7 0.0
16/04:30am 19.3 17.8 16.2 82 1.9 SSW 19 26 10 14 1017.5 1017.4 0.0
16/04:00am 19.4 17.9 16.2 82 1.9 SSW 19 28 10 15 1017.4 1017.3 0.0
16/03:30am 19.4 17.9 16.4 83 1.8 SSW 19 32 10 17 1017.5 1017.4 0.0
16/03:00am 19.3 17.7 16.5 84 1.7 SSW 20 32 11 17 1017.7 1017.6 0.0
16/02:30am 19.5 17.7 16.9 85 1.6 S 22 28 12 15 1017.9 1017.8 0.0
16/02:00am 19.6 17.9 17.2 86 1.5 SSW 22 30 12 16 1017.7 1017.6 0.0
16/01:30am 19.5 18.1 17.1 86 1.5 SSW 20 26 11 14 1017.7 1017.6 0.0
16/01:00am 19.5 18.3 17.5 88 1.2 SSW 20 26 11 14 1017.8 1017.7 0.0
16/12:30am 19.6 18.7 17.7 89 1.2 SSW 19 24 10 13 1018.1 1018.0 0.0
16/12:00am 19.5 19.4 17.8 90 1.0 SSW 15 20 8 11 1018.1 1018.0 0.0
 
Date/Time
WST
Temp
°C
App
Temp
°C
Dew
Point
°C
Rel
Hum
%
Delta-T
°C
Wind Press
QNH
hPa
Press
MSL
hPa
Rain since
9am
mm
Dir  Spd
km/h
Gust
km/h
Spd
kts
Gust
kts
15/11:30pm 19.1 19.7 17.6 91 0.9 S 11 15 6 8 1018.1 1018.0 0.0
15/11:00pm 19.4 19.9 17.4 88 1.2 S 11 17 6 9 1018.0 1017.9 0.0
15/10:30pm 19.6 20.2 17.6 88 1.2 S 11 17 6 9 1018.1 1018.0 0.0
15/10:00pm 19.7 19.5 17.5 87 1.3 S 15 22 8 12 1018.5 1018.4 0.0
15/09:30pm 20.1 19.4 17.3 84 1.7 S 17 24 9 13 1018.8 1018.7 0.0
15/09:00pm 20.1 19.5 17.5 85 1.6 S 17 24 9 13 1018.7 1018.6 0.0
15/08:30pm 20.1 19.0 17.3 84 1.7 S 19 24 10 13 1018.3 1018.2 0.0
15/08:00pm 20.2 19.0 17.6 85 1.6 S 20 28 11 15 1017.9 1017.8 0.0
15/07:30pm 20.2 19.4 18.0 87 1.4 S 19 26 10 14 1017.4 1017.3 0.0
15/07:00pm 20.2 19.4 18.0 87 1.4 S 19 26 10 14 1016.7 1016.6 0.0
15/06:30pm 20.6 20.7 18.4 87 1.4 S 15 24 8 13 1016.0 1015.9 0.0
15/06:00pm 20.8 20.1 18.2 85 1.6 S 19 24 10 13 1015.6 1015.5 0.0
15/05:30pm 21.0 20.2 18.0 83 1.9 SSE 19 28 10 15 1015.3 1015.3 0.0
15/05:00pm 21.8 21.0 18.4 81 2.1 S 20 30 11 16 1015.2 1015.2 0.0
15/04:30pm 22.5 21.2 18.1 76 2.7 S 22 30 12 16 1014.9 1014.9 0.0
15/04:00pm 22.6 21.1 17.7 74 3.0 S 22 30 12 16 1014.6 1014.6 0.0
15/03:30pm 22.5 21.0 17.8 75 2.9 S 22 28 12 15 1014.6 1014.6 0.0
15/03:00pm 22.8 22.0 18.1 75 2.9 S 19 24 10 13 1014.4 1014.4 0.0
15/02:30pm 23.3 22.4 18.2 73 3.2 S 20 28 11 15 1014.5 1014.5 0.0
15/02:00pm 23.4 22.3 17.8 71 3.5 SSE 20 28 11 15 1014.6 1014.6 0.0
15/01:30pm 23.2 22.3 17.7 71 3.4 SSE 19 28 10 15 1014.8 1014.8 0.0
15/01:00pm 23.7 22.7 17.9 70 3.6 SSE 20 28 11 15 1015.3 1015.3 0.0
15/12:30pm 22.8 21.6 17.5 72 3.3 SSE 20 28 11 15 1015.5 1015.4 0.0
15/12:00pm 22.6 21.5 17.3 72 3.3 SE 19 28 10 15 1015.5 1015.4 0.0
15/11:30am 23.1 22.5 17.6 71 3.4 SE 17 26 9 14 1015.8 1015.7 0.0
15/11:00am 22.9 21.8 17.4 71 3.4 SE 19 26 10 14 1016.1 1016.0 0.0
15/10:30am 22.5 21.3 17.0 71 3.4 SE 19 28 10 15 1016.6 1016.5 0.0
15/10:00am 22.1 20.9 17.0 73 3.1 SSE 19 26 10 14 1016.9 1016.8 0.0
15/09:30am 22.1 21.5 17.5 75 2.8 SE 17 22 9 12 1017.0 1016.9 0.0
15/09:00am 21.9 21.9 17.3 75 2.8 SE 13 19 7 10 1017.3 1017.2 0.0
15/08:30am 21.4 21.9 17.4 78 2.5 SE 11 19 6 10 1017.2 1017.1 0.0
15/08:00am 21.2 21.8 17.6 80 2.2 SE 11 17 6 9 1017.3 1017.2 0.0
15/07:30am 20.8 21.0 17.6 82 2.0 SE 13 20 7 11 1017.0 1016.9 0.0
15/07:00am 20.2 20.8 17.8 86 1.5 SSE 11 17 6 9 1017.3 1017.2 0.0
15/06:30am 19.4 20.3 18.4 94 0.6 SSE 11 17 6 9 1017.0 1016.9 0.0
15/06:00am 18.6 19.9 18.4 99 0.1 SSE 9 11 5 6 1016.8 1016.7 0.0
15/05:30am 17.9 19.9 17.9 100 0.0 SSE 4 6 2 3 1016.6 1016.5 0.0
15/05:00am 17.3 19.8 17.3 100 0.0 CALM 0 0 0 0 1016.3 1016.2 0.0
15/04:30am 17.4 20.0 17.4 100 0.0 CALM 0 0 0 0 1016.1 1016.0 0.0
15/04:00am 16.8 19.0 16.5 98 0.2 CALM 0 0 0 0 1015.8 1015.7 0.0
15/03:30am 17.0 18.8 16.5 97 0.3 NE 2 4 1 2 1015.8 1015.7 0.0
15/03:00am 17.4 19.7 16.8 96 0.4 CALM 0 0 0 0 1015.9 1015.8 0.0
15/02:30am 18.2 20.9 17.7 97 0.3 CALM 0 0 0 0 1016.0 1015.9 0.0
15/02:00am 18.0 19.7 17.2 95 0.5 ENE 4 7 2 4 1015.8 1015.7 0.0
15/01:30am 18.8 20.2 17.8 94 0.6 ESE 7 9 4 5 1015.8 1015.7 0.0
15/01:00am 18.8 20.5 18.0 95 0.5 SE 6 7 3 4 1015.9 1015.8 0.0
15/12:30am 18.5 19.9 17.7 95 0.5 SE 7 9 4 5 1015.5 1015.4 0.0
15/12:00am 18.6 20.0 17.4 93 0.7 SE 6 7 3 4 1015.5 1015.4 0.0
 
Date/Time
WST
Temp
°C
App
Temp
°C
Dew
Point
°C
Rel
Hum
%
Delta-T
°C
Wind Press
QNH
hPa
Press
MSL
hPa
Rain since
9am
mm
Dir  Spd
km/h
Gust
km/h
Spd
kts
Gust
kts
14/11:30pm 19.1 20.0 17.6 91 0.9 SSE 9 13 5 7 1015.3 1015.3 0.0
14/11:00pm 19.1 19.7 17.6 91 0.9 S 11 15 6 8 1015.1 1015.1 0.0
14/10:30pm 19.3 19.9 17.6 90 1.0 S 11 15 6 8 1015.3 1015.3 0.0
14/10:00pm 19.6 20.9 17.6 88 1.2 ESE 7 13 4 7 1015.7 1015.6 0.0
14/09:30pm 19.9 21.4 17.7 87 1.4 E 6 7 3 4 1016.6 1016.5 0.0
14/09:00pm 19.8 21.1 17.6 87 1.3 SE 7 11 4 6 1016.0 1015.9 0.0
14/08:30pm 19.8 20.4 17.8 88 1.2 S 11 17 6 9 1015.3 1015.3 0.0
14/08:00pm 19.6 20.2 17.6 88 1.2 S 11 15 6 8 1014.7 1014.7 0.0
14/07:30pm 19.7 20.5 17.3 86 1.5 S 9 13 5 7 1014.6 1014.6 0.0
14/07:00pm 20.1 19.7 17.1 83 1.8 S 15 20 8 11 1014.1 1014.1 0.0
14/06:30pm 20.5 20.3 16.7 79 2.3 S 13 19 7 10 1013.8 1013.8 0.0
14/06:00pm 21.5 22.5 16.9 75 2.8 SSE 7 11 4 6 1014.0 1014.0 0.0
14/05:30pm 21.2 21.8 16.8 76 2.7 S 9 13 5 7 1013.9 1013.9 0.0
14/05:00pm 21.1 22.1 16.9 77 2.6 S 7 15 4 8 1013.6 1013.6 0.0
14/04:30pm 21.1 20.9 16.7 76 2.7 S 13 20 7 11 1012.9 1012.9 0.0
14/04:00pm 21.6 22.3 17.0 75 2.8 S 9 13 5 7 1013.3 1013.3 0.0
14/03:30pm 21.5 22.1 16.7 74 2.9 S 9 11 5 6 1013.2 1013.2 0.0
14/03:00pm 21.8 20.6 17.0 74 2.9 S 19 24 10 13 1012.3 1012.3 0.0
14/02:30pm 21.9 20.6 16.8 73 3.1 S 19 24 10 13 1012.2 1012.2 0.0
14/02:00pm 22.8 20.9 16.8 69 3.7 SSW 22 28 12 15 1012.2 1012.2 0.0
14/01:30pm 22.9 20.8 16.2 66 4.1 S 22 28 12 15 1012.4 1012.4 0.0
14/01:00pm 23.2 21.2 16.5 66 4.1 SSW 22 32 12 17 1012.4 1012.4 0.0
14/12:30pm 23.3 20.7 15.9 63 4.5 SSW 24 32 13 17 1012.3 1012.3 0.0

Other Formats:

Comma delimited format used in spreadsheet applications
http://www.bom.gov.au/fwo/IDW60801/IDW60801.95635.axf

JavaScript Object Notation format (JSON) in row-major order
http://www.bom.gov.au/fwo/IDW60801/IDW60801.95635.json